createdAt,value
2019-04-23T00:01:50.984Z,5.92
2019-04-23T00:04:19.917Z,5.92
2019-04-23T00:07:15.709Z,5.92
2019-04-23T00:09:26.036Z,5.87
2019-04-23T00:12:01.871Z,6.15
2019-04-23T00:14:38.297Z,5.45
2019-04-23T00:17:12.040Z,5.85
2019-04-23T00:19:42.331Z,5.47
2019-04-23T00:22:15.067Z,5.72
2019-04-23T00:30:01.022Z,5.85
2019-04-23T00:32:37.930Z,6.15
2019-04-23T00:35:05.893Z,5.75
2019-04-23T00:38:01.257Z,5.33
2019-04-23T00:40:12.826Z,5.72
2019-04-23T00:43:03.370Z,5.22
2019-04-23T00:45:27.046Z,6.08
2019-04-23T00:53:20.335Z,5.47
2019-04-23T00:55:35.224Z,5.50
2019-04-23T00:58:15.832Z,5.03
2019-04-23T01:03:11.871Z,5.42
2019-04-23T01:05:50.423Z,5.75
2019-04-23T01:11:16.391Z,5.37
2019-04-23T01:13:39.597Z,5.80
2019-04-23T01:18:49.111Z,5.60
2019-04-23T01:21:01.286Z,5.55
2019-04-23T01:23:58.151Z,5.30
2019-04-23T01:26:57.598Z,5.87
2019-04-23T01:29:20.212Z,5.70
2019-04-23T01:31:58.571Z,6.03
2019-04-23T01:34:31.903Z,4.78
2019-04-23T01:37:01.178Z,5.25
2019-04-23T01:39:32.742Z,6.90
2019-04-23T01:42:14.588Z,5.62
2019-04-23T01:44:42.369Z,4.97
2019-04-23T01:47:21.488Z,5.33
2019-04-23T01:49:54.702Z,6.00
2019-04-23T01:52:24.900Z,6.20
2019-04-23T01:54:51.990Z,5.37
2019-04-23T01:57:30.883Z,5.20
2019-04-23T02:00:03.159Z,6.53
2019-04-23T02:02:39.100Z,5.92
2019-04-23T02:07:44.339Z,5.92
2019-04-23T02:10:21.898Z,5.80
2019-04-23T02:12:47.698Z,6.05
2019-04-23T02:15:23.035Z,6.00
2019-04-23T02:17:58.572Z,5.25
2019-04-23T02:20:30.812Z,6.58
2019-04-23T02:23:13.279Z,5.92
2019-04-23T02:28:09.148Z,5.78
2019-04-23T02:30:57.824Z,5.97
2019-04-23T02:38:31.539Z,6.08
2019-04-23T02:43:21.993Z,5.17
2019-04-23T02:46:09.327Z,5.50
2019-04-23T02:51:13.356Z,4.50
2019-04-23T02:53:55.587Z,5.40
2019-04-23T02:58:55.023Z,6.00
2019-04-23T03:01:36.015Z,4.17
2019-04-23T03:04:04.053Z,4.05
2019-04-23T03:06:32.183Z,5.15
2019-04-23T03:09:00.444Z,5.55
2019-04-23T03:11:41.712Z,5.37
2019-04-23T03:14:18.678Z,5.53
2019-04-23T03:22:05.953Z,5.67
2019-04-23T03:24:54.514Z,5.42
2019-04-23T03:27:29.168Z,4.53
2019-04-23T03:34:34.587Z,5.05
2019-04-23T03:40:11.613Z,5.40
2019-04-23T03:42:53.933Z,5.53
2019-04-23T03:45:36.976Z,5.92
2019-04-23T03:48:05.669Z,5.72
2019-04-23T03:50:39.413Z,5.85
2019-04-23T03:53:18.462Z,6.00
2019-04-23T03:55:54.585Z,5.85
2019-04-23T04:03:55.596Z,6.00
2019-04-23T04:06:05.320Z,5.92
2019-04-23T04:08:36.121Z,6.17
2019-04-23T04:11:18.143Z,6.60
2019-04-23T04:19:07.541Z,5.20
2019-04-23T04:21:31.951Z,5.83
2019-04-23T04:24:05.154Z,6.33
2019-04-23T04:26:34.908Z,6.22
2019-04-23T04:31:42.840Z,5.58
2019-04-23T04:34:22.285Z,5.20
2019-04-23T04:36:45.567Z,6.05
2019-04-23T04:39:06.061Z,6.28
2019-04-23T04:41:52.616Z,5.78
2019-04-23T04:46:49.899Z,5.92
2019-04-23T04:49:30.472Z,5.53
2019-04-23T04:52:13.486Z,5.22
2019-04-23T04:54:37.638Z,5.45
2019-04-23T04:57:13.092Z,5.12
2019-04-23T05:02:22.497Z,5.12
2019-04-23T05:04:53.989Z,5.40
2019-04-23T05:09:55.165Z,4.37
2019-04-23T05:12:29.077Z,4.70
2019-04-23T05:15:03.019Z,5.15
2019-04-23T05:17:43.174Z,6.00
2019-04-23T05:25:05.775Z,5.00
2019-04-23T05:27:53.666Z,5.03
2019-04-23T05:30:22.563Z,4.85
2019-04-23T05:32:57.938Z,3.92
2019-04-23T05:35:39.900Z,5.22
2019-04-23T05:38:08.742Z,4.03
2019-04-23T05:43:03.387Z,5.17
2019-04-23T05:50:59.079Z,5.22
2019-04-23T05:53:21.584Z,4.37
2019-04-23T05:55:55.421Z,3.80
2019-04-23T05:58:33.025Z,6.85
2019-04-23T06:06:55.785Z,5.55
2019-04-23T06:09:10.565Z,5.05
2019-04-23T06:14:11.379Z,3.45
2019-04-23T06:16:58.970Z,4.58
2019-04-23T06:24:29.250Z,4.25
2019-04-23T06:27:01.738Z,4.85
2019-04-23T06:29:32.201Z,5.10
2019-04-23T06:32:02.316Z,4.50
2019-04-23T06:34:33.960Z,4.72
2019-04-23T06:37:12.747Z,5.05
2019-04-23T06:39:41.307Z,3.75
2019-04-23T06:42:11.646Z,3.55
2019-04-23T06:44:59.878Z,4.42
2019-04-23T06:47:20.134Z,4.10
2019-04-23T06:49:55.907Z,4.33
2019-04-23T06:55:03.010Z,3.80
2019-04-23T06:57:33.331Z,3.70
2019-04-23T07:00:07.476Z,3.80
2019-04-23T07:05:20.605Z,4.10
2019-04-23T07:07:52.733Z,3.95
2019-04-23T07:10:18.650Z,4.05
2019-04-23T07:12:59.705Z,4.12
2019-04-23T07:17:58.048Z,3.77
2019-04-23T07:20:33.507Z,3.17
2019-04-23T07:23:13.865Z,2.98
2019-04-23T07:25:39.046Z,2.92
2019-04-23T07:28:21.283Z,3.37
2019-04-23T07:30:52.168Z,3.33
2019-04-23T07:33:19.198Z,3.60
2019-04-23T07:35:51.777Z,4.53
2019-04-23T07:38:42.164Z,11.90
2019-04-23T07:41:23.630Z,7.80
2019-04-23T07:44:05.844Z,4.87
2019-04-23T07:46:40.741Z,4.15
2019-04-23T07:49:11.897Z,4.67
2019-04-23T07:51:46.755Z,4.28
2019-04-23T07:54:19.384Z,3.92
2019-04-23T07:56:53.843Z,3.60
2019-04-23T07:59:30.816Z,5.47
2019-04-23T08:01:57.410Z,3.45
2019-04-23T08:04:36.908Z,5.67
2019-04-23T08:07:01.275Z,3.72
2019-04-23T08:10:02.348Z,4.00
2019-04-23T08:12:31.331Z,5.30
2019-04-23T08:15:02.250Z,3.90
2019-04-23T08:17:31.204Z,3.90
2019-04-23T08:20:07.662Z,4.17
2019-04-23T08:22:39.382Z,3.02
2019-04-23T08:25:26.641Z,4.12
2019-04-23T08:27:51.823Z,2.90
2019-04-23T08:30:15.890Z,3.08
2019-04-23T08:32:57.424Z,3.12
2019-04-23T08:35:30.076Z,2.50
2019-04-23T08:38:12.279Z,3.70
2019-04-23T08:40:33.543Z,3.00
2019-04-23T08:43:34.856Z,3.70
2019-04-23T08:46:05.890Z,2.77
2019-04-23T08:51:24.119Z,3.80
2019-04-23T08:53:40.741Z,2.37
2019-04-23T08:56:18.443Z,3.10
2019-04-23T08:58:47.293Z,2.87
2019-04-23T09:01:24.533Z,3.15
2019-04-23T09:03:52.657Z,2.58
2019-04-23T09:06:27.646Z,2.75
2019-04-23T09:09:04.581Z,2.30
2019-04-23T09:14:00.944Z,2.77
2019-04-23T09:16:44.679Z,2.08
2019-04-23T09:19:20.023Z,2.58
2019-04-23T09:21:50.542Z,2.77
2019-04-23T09:24:20.140Z,2.70
2019-04-23T09:26:58.952Z,2.70
2019-04-23T09:29:36.640Z,2.77
2019-04-23T09:34:46.539Z,2.67
2019-04-23T09:37:35.745Z,3.35
2019-04-23T09:40:18.454Z,2.75
2019-04-23T09:48:11.774Z,2.90
2019-04-23T09:50:56.949Z,2.50
2019-04-23T09:53:27.832Z,3.00
2019-04-23T09:55:45.482Z,3.10
2019-04-23T09:58:23.823Z,2.75
2019-04-23T10:01:19.629Z,2.58
2019-04-23T10:03:38.210Z,2.33
2019-04-23T10:06:02.970Z,3.20
2019-04-23T10:08:35.537Z,2.50
2019-04-23T10:11:03.288Z,3.37
2019-04-23T10:13:34.631Z,2.60
2019-04-23T10:16:06.882Z,2.12
2019-04-23T10:18:39.398Z,5.47
2019-04-23T10:21:11.206Z,2.65
2019-04-23T10:23:43.303Z,2.83
2019-04-23T10:26:14.482Z,3.72
2019-04-23T10:28:51.984Z,3.30
2019-04-23T10:31:24.947Z,4.22
2019-04-23T10:33:57.814Z,2.40
2019-04-23T10:36:31.715Z,3.35
2019-04-23T10:39:10.702Z,3.60
2019-04-23T10:41:38.465Z,3.12
2019-04-23T10:44:13.436Z,4.30
2019-04-23T10:47:20.033Z,3.10
2019-04-23T10:50:05.443Z,3.42
2019-04-23T10:52:33.713Z,2.98
2019-04-23T10:55:06.119Z,3.05
2019-04-23T10:57:33.027Z,2.90
2019-04-23T11:00:09.494Z,4.28
2019-04-23T11:03:14.031Z,4.83
2019-04-23T11:05:29.115Z,3.12
2019-04-23T11:07:42.067Z,3.35
2019-04-23T11:13:27.285Z,3.65
2019-04-23T11:15:44.237Z,2.80
2019-04-23T11:18:06.343Z,3.17
2019-04-23T11:20:45.413Z,3.45
2019-04-23T11:23:11.591Z,3.22
2019-04-23T11:26:06.614Z,2.75
2019-04-23T11:28:27.931Z,3.27
2019-04-23T11:30:55.787Z,3.33
2019-04-23T11:33:50.898Z,3.27
2019-04-23T11:36:35.618Z,3.22
2019-04-23T11:41:22.841Z,3.52
2019-04-23T11:43:50.789Z,3.35
2019-04-23T11:46:35.855Z,3.10
2019-04-23T11:49:04.613Z,3.67
2019-04-23T11:57:04.406Z,3.27
2019-04-23T11:59:12.353Z,3.27
2019-04-23T12:04:35.004Z,2.67
2019-04-23T12:07:25.959Z,3.00
2019-04-23T12:12:32.840Z,3.33
2019-04-23T12:17:48.952Z,3.05
2019-04-23T12:20:25.644Z,2.60
2019-04-23T12:23:01.157Z,3.27
2019-04-23T12:25:32.895Z,3.52
2019-04-23T12:27:42.448Z,3.37
2019-04-23T12:30:33.999Z,2.67
2019-04-23T12:33:04.181Z,3.58
2019-04-23T12:35:43.406Z,2.65
2019-04-23T12:38:14.242Z,3.22
2019-04-23T12:40:40.532Z,3.37
2019-04-23T12:43:15.604Z,3.33
2019-04-23T12:45:57.621Z,3.65
2019-04-23T12:48:36.846Z,3.60
2019-04-23T12:53:30.579Z,3.30
2019-04-23T12:56:03.717Z,2.55
2019-04-23T12:58:29.173Z,3.25
2019-04-23T13:01:06.776Z,2.98
2019-04-23T13:06:13.690Z,3.33
2019-04-23T13:09:01.453Z,3.15
2019-04-23T13:11:25.404Z,4.25
2019-04-23T13:13:58.835Z,3.52
2019-04-23T13:19:06.412Z,3.00
2019-04-23T13:21:51.432Z,3.67
2019-04-23T13:24:15.675Z,3.92
2019-04-23T13:26:44.536Z,3.95
2019-04-23T13:29:27.284Z,4.03
2019-04-23T13:31:50.172Z,3.37
2019-04-23T13:34:34.735Z,3.83
2019-04-23T13:37:00.483Z,3.05
2019-04-23T13:39:39.902Z,3.60
2019-04-23T13:42:19.892Z,3.08
2019-04-23T13:44:51.887Z,3.98
2019-04-23T13:47:28.212Z,4.00
2019-04-23T13:49:57.213Z,3.02
2019-04-23T13:52:59.733Z,3.77
2019-04-23T13:55:09.412Z,3.37
2019-04-23T14:00:09.032Z,3.98
2019-04-23T14:02:46.236Z,3.42
2019-04-23T14:05:23.256Z,4.05
2019-04-23T14:07:57.031Z,4.05
2019-04-23T14:10:34.173Z,3.20
2019-04-23T14:13:15.101Z,3.55
2019-04-23T14:15:46.281Z,3.50
2019-04-23T14:18:27.347Z,3.10
2019-04-23T14:20:40.399Z,3.50
2019-04-23T14:23:29.317Z,3.80
2019-04-23T14:26:10.880Z,3.40
2019-04-23T14:28:28.974Z,3.52
2019-04-23T14:31:01.147Z,4.12
2019-04-23T14:33:40.535Z,3.35
2019-04-23T14:36:02.843Z,3.92
2019-04-23T14:38:40.049Z,3.62
2019-04-23T14:41:16.506Z,3.47
2019-04-23T14:43:56.047Z,3.10
2019-04-23T14:46:38.523Z,3.02
2019-04-23T14:51:49.914Z,3.83
2019-04-23T14:54:36.251Z,3.27
2019-04-23T14:59:19.875Z,3.50
2019-04-23T15:02:05.481Z,3.52
2019-04-23T15:04:43.432Z,3.70
2019-04-23T15:07:15.659Z,4.00
2019-04-23T15:12:22.678Z,4.12
2019-04-23T15:14:59.372Z,3.62
2019-04-23T15:20:03.051Z,3.30
2019-04-23T15:22:47.957Z,3.30
2019-04-23T15:25:19.344Z,3.58
2019-04-23T15:30:04.081Z,4.92
2019-04-23T15:32:54.464Z,4.08
2019-04-23T15:38:27.062Z,5.17
2019-04-23T15:40:25.180Z,5.47
2019-04-23T15:43:04.781Z,5.35
2019-04-23T15:45:38.376Z,5.67
2019-04-23T15:48:11.255Z,5.47
2019-04-23T15:50:43.473Z,4.58
2019-04-23T15:53:25.042Z,4.75
2019-04-23T15:55:49.686Z,4.95
2019-04-23T15:58:30.040Z,4.45
2019-04-23T16:01:18.374Z,4.15
2019-04-23T16:03:20.617Z,4.12
2019-04-23T16:05:52.967Z,3.75
2019-04-23T16:09:04.743Z,3.35
2019-04-23T16:11:41.191Z,3.83
2019-04-23T16:14:16.758Z,4.08
2019-04-23T16:19:17.208Z,2.98
2019-04-23T16:24:17.737Z,3.87
2019-04-23T16:26:55.855Z,4.00
2019-04-23T16:34:34.056Z,4.00
2019-04-23T16:37:08.461Z,3.95
2019-04-23T16:39:49.322Z,3.72
2019-04-23T16:42:24.881Z,3.47
2019-04-23T16:47:32.954Z,4.87
2019-04-23T16:53:05.032Z,5.72
2019-04-23T16:57:59.847Z,5.20
2019-04-23T17:03:06.791Z,4.20
2019-04-23T17:05:33.678Z,4.17
2019-04-23T17:08:33.850Z,4.55
2019-04-23T17:10:38.879Z,5.10
2019-04-23T17:15:53.479Z,4.83
2019-04-23T17:18:17.334Z,4.92
2019-04-23T17:23:31.686Z,5.03
2019-04-23T17:26:00.883Z,4.95
2019-04-23T17:31:24.600Z,5.12
2019-04-23T17:39:00.686Z,4.28
2019-04-23T17:44:31.517Z,4.33
2019-04-23T17:46:50.446Z,4.70
2019-04-23T17:49:23.382Z,4.47
2019-04-23T17:52:11.475Z,4.50
2019-04-23T18:00:08.316Z,4.33
2019-04-23T18:05:02.565Z,4.95
2019-04-23T18:10:18.315Z,5.90
2019-04-23T18:15:10.651Z,7.33
2019-04-23T18:20:36.899Z,12.00
2019-04-23T18:23:08.492Z,13.62
2019-04-23T18:28:10.390Z,13.10
2019-04-23T18:30:59.992Z,11.10
2019-04-23T18:33:54.662Z,10.27
2019-04-23T18:35:56.722Z,8.50
2019-04-23T18:38:53.252Z,9.43
2019-04-23T18:48:50.073Z,11.08
2019-04-23T18:51:40.662Z,8.75
2019-04-23T18:53:52.733Z,9.28
2019-04-23T18:56:51.507Z,9.80
2019-04-23T19:01:47.852Z,9.25
2019-04-23T19:04:58.565Z,11.22
2019-04-23T19:07:27.384Z,10.50
2019-04-23T19:12:41.416Z,8.30
2019-04-23T19:15:21.634Z,7.97
2019-04-23T19:17:56.606Z,6.55
2019-04-23T19:20:37.916Z,5.83
2019-04-23T19:22:58.827Z,5.47
2019-04-23T19:25:28.089Z,5.15
2019-04-23T19:28:09.190Z,5.03
2019-04-23T19:30:46.403Z,4.47
2019-04-23T19:41:02.218Z,5.17
2019-04-23T19:46:36.641Z,5.30
2019-04-23T19:49:07.316Z,4.47
2019-04-23T19:51:17.138Z,4.60
2019-04-23T19:56:45.297Z,4.67
2019-04-23T19:58:59.699Z,4.60
2019-04-23T20:01:36.342Z,4.42
2019-04-23T20:03:56.099Z,4.53
2019-04-23T20:06:58.578Z,4.42
2019-04-23T20:11:50.233Z,4.60
2019-04-23T20:14:10.837Z,4.83
2019-04-23T20:17:04.101Z,4.65
2019-04-23T20:19:33.775Z,4.60
2019-04-23T20:30:15.524Z,4.72
2019-04-23T20:35:06.584Z,4.58
2019-04-23T20:38:09.785Z,4.53
2019-04-23T20:40:18.657Z,4.78
2019-04-23T20:42:48.128Z,4.45
2019-04-23T20:47:52.822Z,4.75
2019-04-23T20:50:18.169Z,4.40
2019-04-23T20:52:53.188Z,4.72
2019-04-23T20:55:38.527Z,5.03
2019-04-23T20:58:03.653Z,4.37
2019-04-23T21:00:56.389Z,4.45
2019-04-23T21:06:04.287Z,3.67
2019-04-23T21:10:55.608Z,4.33
2019-04-23T21:16:04.938Z,3.85
2019-04-23T21:21:22.273Z,4.28
2019-04-23T21:26:17.415Z,4.70
2019-04-23T21:29:17.445Z,4.58
2019-04-23T21:31:32.142Z,4.45
2019-04-23T21:36:44.386Z,4.67
2019-04-23T21:42:07.473Z,4.25
2019-04-23T21:44:18.335Z,4.72
2019-04-23T21:47:06.409Z,5.65
2019-04-23T21:52:07.968Z,5.37
2019-04-23T21:54:47.337Z,4.72
2019-04-23T21:57:11.044Z,4.30
2019-04-23T21:59:52.191Z,4.50
2019-04-23T22:02:36.157Z,4.87
2019-04-23T22:04:52.059Z,4.62
2019-04-23T22:07:29.317Z,4.67
2019-04-23T22:09:57.625Z,5.00
2019-04-23T22:12:33.867Z,4.80
2019-04-23T22:14:55.653Z,4.80
2019-04-23T22:17:37.472Z,5.40
2019-04-23T22:20:26.468Z,4.80
2019-04-23T22:22:58.778Z,4.97
2019-04-23T22:25:13.293Z,4.95
2019-04-23T22:27:50.769Z,4.50
2019-04-23T22:30:22.387Z,4.30
2019-04-23T22:33:09.531Z,4.40
2019-04-23T22:35:35.566Z,4.55
2019-04-23T22:40:34.945Z,4.37
2019-04-23T22:43:15.004Z,5.12
2019-04-23T22:48:13.901Z,3.40
2019-04-23T22:50:57.543Z,4.55
2019-04-23T22:53:15.249Z,4.05
2019-04-23T22:56:03.369Z,5.10
2019-04-23T22:58:31.671Z,4.72
2019-04-23T23:01:15.889Z,4.58
2019-04-23T23:03:49.040Z,3.90
2019-04-23T23:06:18.194Z,4.55
2019-04-23T23:09:01.086Z,4.10
2019-04-23T23:11:28.734Z,3.77
2019-04-23T23:14:10.157Z,4.15
2019-04-23T23:16:27.831Z,3.65
2019-04-23T23:19:03.927Z,3.90
2019-04-23T23:21:44.368Z,4.12
2019-04-23T23:24:07.439Z,4.75
2019-04-23T23:26:49.982Z,4.45
2019-04-23T23:29:19.150Z,3.87
2019-04-23T23:34:36.892Z,3.55
2019-04-23T23:37:08.865Z,3.98
2019-04-23T23:39:35.234Z,3.92
2019-04-23T23:42:09.824Z,3.83
2019-04-23T23:44:56.201Z,4.25
2019-04-23T23:47:14.728Z,4.40
2019-04-23T23:50:07.382Z,3.90
2019-04-23T23:52:33.177Z,4.35
2019-04-23T23:54:59.382Z,3.80
2019-04-23T23:57:32.251Z,4.10
